Time;durP1;ratioP1;P1;durP2;ratioP2;P2;SDS_P1;SDS_P2;PMS_P1;PMS_P2;Temp;Humidity;BMP_temperature;BMP_pressure;BME280_temperature;BME280_humidity;BME280_pressure;Samples;Min_cycle;Max_cycle;Signal;HPM_P1;HPM_P2
2022/05/05 00:01:11;;;;;;;;;;;;;;;11.92;54.22;101440.06;5060147;28;19998;-77
2022/05/05 00:03:38;;;;;;;;;;;;;;;11.78;53.86;101439.44;5059133;28;19921;-74
2022/05/05 00:06:03;;;;;;;;;;;;;;;11.82;54.22;101439.38;5058336;28;19928;-74
2022/05/05 00:08:30;;;;;;;;;;;;;;;12.02;54.28;101442.53;5060141;28;19924;-74
2022/05/05 00:16:24;;;;;;;;;;;;;;;11.74;54.75;101441.22;5062010;28;20404;-80
2022/05/05 00:18:49;;;;;;;;;;;;;;;11.74;54.79;101443.81;5062431;28;19929;-80
2022/05/05 00:21:15;;;;;;;;;;;;;;;11.67;54.51;101438.75;5061569;28;19994;-78
2022/05/05 00:23:40;;;;;;;;;;;;;;;11.64;54.91;101452.66;5059237;28;19948;-77
2022/05/05 00:26:05;;;;;;;;;;;;;;;11.55;55.51;101445.84;5059787;28;19931;-80
2022/05/05 00:28:31;;;;;;;;;;;;;;;11.55;55.16;101443.25;5057793;28;19947;-80
2022/05/05 00:30:56;;;;;;;;;;;;;;;11.66;55.00;101444.81;5064800;28;19928;-80
2022/05/05 00:33:21;;;;;;;;;;;;;;;11.67;55.02;101443.94;5058405;28;19928;-80
2022/05/05 00:35:47;;;;;;;;;;;;;;;11.67;54.86;101450.00;5061643;28;19932;-80
2022/05/05 00:38:12;;;;;;;;;;;;;;;11.68;54.99;101448.28;5063195;28;19984;-80
2022/05/05 00:40:41;;;;;;;;;;;;;;;11.70;54.56;101449.09;5062415;28;19985;-74
2022/05/05 00:43:06;;;;;;;;;;;;;;;11.78;55.02;101447.25;5064111;28;19931;-74
2022/05/05 00:45:31;;;;;;;;;;;;;;;11.69;54.57;101448.25;5062548;28;19928;-74
2022/05/05 00:48:04;;;;;;;;;;;;;;;11.47;55.26;101445.06;5049249;28;20041;-74
2022/05/05 00:50:31;;;;;;;;;;;;;;;11.52;55.24;101445.91;5058998;28;19979;-74
2022/05/05 00:52:56;;;;;;;;;;;;;;;11.61;55.02;101444.03;5060572;28;19917;-74
2022/05/05 00:55:22;;;;;;;;;;;;;;;11.63;55.33;101447.47;5066712;28;19982;-74
2022/05/05 00:57:47;;;;;;;;;;;;;;;11.69;55.23;101445.63;5063187;28;19929;-74
2022/05/05 01:00:12;;;;;;;;;;;;;;;11.68;54.89;101443.91;5065000;28;19960;-74
2022/05/05 01:02:38;;;;;;;;;;;;;;;11.75;55.46;101442.09;5063653;28;19920;-74
2022/05/05 01:05:03;;;;;;;;;;;;;;;11.57;55.87;101435.41;5063979;28;19921;-77
2022/05/05 01:07:29;;;;;;;;;;;;;;;11.64;55.51;101441.38;5064211;28;19931;-77
2022/05/05 01:09:54;;;;;;;;;;;;;;;11.58;56.59;101452.75;5055970;28;19936;-74
2022/05/05 01:12:20;;;;;;;;;;;;;;;11.68;54.94;101448.28;5065307;28;20365;-79
2022/05/05 01:14:45;;;;;;;;;;;;;;;11.76;54.97;101447.28;5059797;28;19931;-80
2022/05/05 01:17:11;;;;;;;;;;;;;;;11.64;55.49;101450.06;5063267;28;19959;-80
2022/05/05 01:19:36;;;;;;;;;;;;;;;11.65;55.49;101445.72;5059815;28;19916;-80
2022/05/05 01:22:03;;;;;;;;;;;;;;;11.47;55.22;101442.47;5061711;28;19935;-80
2022/05/05 01:29:57;;;;;;;;;;;;;;;11.57;55.43;101451.88;5061476;28;21420;-80
2022/05/05 01:32:29;;;;;;;;;;;;;;;11.44;55.48;101449.50;5065717;28;19920;-80
2022/05/05 01:34:54;;;;;;;;;;;;;;;11.55;55.26;101456.25;5064971;28;19948;-80
2022/05/05 01:37:19;;;;;;;;;;;;;;;11.29;55.25;101454.88;5067064;28;19974;-80
2022/05/05 01:39:46;;;;;;;;;;;;;;;11.35;55.39;101457.41;5059570;28;19925;-74
2022/05/05 01:42:11;;;;;;;;;;;;;;;11.50;55.28;101454.59;5068598;28;20356;-74
2022/05/05 01:44:36;;;;;;;;;;;;;;;11.54;55.62;101461.47;5061335;28;20015;-78
2022/05/05 01:47:02;;;;;;;;;;;;;;;11.54;55.18;101461.47;5064841;28;19995;-78
2022/05/05 01:49:27;;;;;;;;;;;;;;;11.42;55.73;101465.09;5065656;28;20011;-78
2022/05/05 01:51:52;;;;;;;;;;;;;;;11.43;54.94;101463.38;5057552;28;19920;-78
2022/05/05 01:54:18;;;;;;;;;;;;;;;11.37;55.62;101466.03;5057179;28;19940;-78
2022/05/05 01:56:43;;;;;;;;;;;;;;;11.31;55.99;101474.78;5057786;28;19925;-78
2022/05/05 01:59:08;;;;;;;;;;;;;;;11.44;55.42;101472.91;5063288;28;19924;-77
2022/05/05 02:01:33;;;;;;;;;;;;;;;11.39;55.69;101475.53;5059620;28;20346;-74
2022/05/05 02:04:00;;;;;;;;;;;;;;;11.39;54.92;101483.34;5062605;28;19928;-74
2022/05/05 02:06:26;;;;;;;;;;;;;;;11.36;55.59;101478.19;5057053;28;19979;-74
2022/05/05 02:08:51;;;;;;;;;;;;;;;11.45;55.64;101477.19;5061597;28;19936;-74
2022/05/05 02:11:16;;;;;;;;;;;;;;;11.34;56.16;101484.28;5058834;28;20335;-74
2022/05/05 02:13:41;;;;;;;;;;;;;;;11.31;55.94;101482.59;5061345;28;20568;-74
2022/05/05 02:16:07;;;;;;;;;;;;;;;11.33;56.00;101485.16;5062742;28;19930;-77
2022/05/05 02:18:32;;;;;;;;;;;;;;;11.40;56.01;101485.09;5061533;28;20652;-77
2022/05/05 02:20:58;;;;;;;;;;;;;;;11.45;55.25;101485.88;5064382;28;19936;-77
2022/05/05 02:23:23;;;;;;;;;;;;;;;11.45;55.54;101485.00;5061759;28;19931;-77
2022/05/05 02:25:48;;;;;;;;;;;;;;;11.36;55.36;101478.19;5048875;28;19928;-77
2022/05/05 02:28:13;;;;;;;;;;;;;;;11.17;55.86;101484.47;5064278;28;20540;-77
2022/05/05 02:30:39;;;;;;;;;;;;;;;11.13;55.96;101490.59;5061020;28;20010;-77
2022/05/05 02:33:04;;;;;;;;;;;;;;;11.11;56.54;101488.88;5063039;28;20627;-77
2022/05/05 02:35:29;;;;;;;;;;;;;;;11.25;55.73;101487.84;5064806;28;19932;-77
2022/05/05 02:40:39;;;;;;;;;;;;;;;11.22;55.37;101485.28;5056192;28;19994;-77
2022/05/05 02:43:06;;;;;;;;;;;;;;;11.29;55.60;101481.78;5063370;28;19951;-77
2022/05/05 02:45:31;;;;;;;;;;;;;;;11.40;55.61;101489.41;5064955;28;19982;-74
2022/05/05 02:47:57;;;;;;;;;;;;;;;11.32;55.94;101481.72;5060930;28;19928;-74
2022/05/05 02:50:23;;;;;;;;;;;;;;;11.29;55.64;101486.97;5061985;28;19955;-74
2022/05/05 02:52:48;;;;;;;;;;;;;;;11.39;55.71;101492.88;5060248;28;19920;-75
2022/05/05 02:55:13;;;;;;;;;;;;;;;11.22;56.20;101489.63;5062094;28;19909;-78
2022/05/05 02:57:39;;;;;;;;;;;;;;;11.02;56.15;101490.72;5064912;28;20031;-78
2022/05/05 03:00:07;;;;;;;;;;;;;;;11.14;56.36;101484.50;5058544;28;19928;-78
2022/05/05 03:02:32;;;;;;;;;;;;;;;11.05;57.12;101489.81;5059475;28;19925;-80
2022/05/05 03:05:00;;;;;;;;;;;;;;;11.05;56.80;101491.56;5057953;28;19935;-80
2022/05/05 03:07:26;;;;;;;;;;;;;;;11.19;56.85;101493.13;5058772;28;19928;-80
2022/05/05 03:09:51;;;;;;;;;;;;;;;11.29;56.89;101494.78;5059773;28;19925;-80
2022/05/05 03:12:17;;;;;;;;;;;;;;;11.32;56.04;101499.94;5062001;28;20296;-80
2022/05/05 03:14:44;;;;;;;;;;;;;;;11.29;56.74;101499.09;5060171;28;20378;-80
2022/05/05 03:17:09;;;;;;;;;;;;;;;11.24;56.98;101500.84;5063165;28;19924;-79
2022/05/05 03:19:34;;;;;;;;;;;;;;;11.26;56.67;101499.13;5064340;28;19924;-80
2022/05/05 03:21:59;;;;;;;;;;;;;;;11.40;56.42;101499.81;5065200;28;19944;-80
2022/05/05 03:24:25;;;;;;;;;;;;;;;11.21;56.46;101499.16;5064513;28;19930;-80
2022/05/05 03:26:50;;;;;;;;;;;;;;;11.36;56.02;101505.94;5059954;28;20345;-80
2022/05/05 03:29:15;;;;;;;;;;;;;;;11.37;56.46;101505.94;5054220;28;19929;-77
2022/05/05 03:31:41;;;;;;;;;;;;;;;11.40;56.35;101498.09;5065208;28;19995;-77
2022/05/05 03:34:06;;;;;;;;;;;;;;;11.29;56.52;101499.97;5060875;28;20385;-78
2022/05/05 03:36:32;;;;;;;;;;;;;;;11.44;56.39;101506.72;5063275;28;19974;-77
2022/05/05 03:38:57;;;;;;;;;;;;;;;11.38;56.05;101501.59;5064457;28;19928;-77
2022/05/05 03:41:22;;;;;;;;;;;;;;;11.31;57.00;101506.00;5062400;28;20565;-77
2022/05/05 03:43:48;;;;;;;;;;;;;;;11.34;56.74;101505.09;5058498;28;19990;-77
2022/05/05 03:46:13;;;;;;;;;;;;;;;11.46;57.28;101507.56;5062183;28;20290;-77
2022/05/05 03:48:38;;;;;;;;;;;;;;;11.43;57.33;101505.00;5060692;28;20443;-77
2022/05/05 03:51:04;;;;;;;;;;;;;;;11.41;56.74;101501.56;5060472;28;20360;-77
2022/05/05 03:53:29;;;;;;;;;;;;;;;11.27;57.21;101506.88;5058930;28;19924;-74
2022/05/05 03:55:54;;;;;;;;;;;;;;;11.35;57.56;101507.69;5061009;28;19960;-74
2022/05/05 03:58:20;;;;;;;;;;;;;;;11.38;57.38;101509.41;5061530;28;19959;-74
2022/05/05 04:00:47;;;;;;;;;;;;;;;11.53;57.11;101515.25;5066135;28;19925;-74
2022/05/05 04:03:31;;;;;;;;;;;;;;;11.40;57.98;101518.91;5062318;28;19929;-74
2022/05/05 04:06:03;;;;;;;;;;;;;;;11.54;57.38;101524.78;5065305;28;19925;-74
2022/05/05 04:08:29;;;;;;;;;;;;;;;11.51;57.76;101518.75;5061643;28;19928;-74
2022/05/05 04:10:54;;;;;;;;;;;;;;;11.41;58.04;101520.59;5059339;28;20316;-74
2022/05/05 04:13:20;;;;;;;;;;;;;;;11.34;57.81;101524.19;5062344;28;19917;-74
2022/05/05 04:15:46;;;;;;;;;;;;;;;11.36;58.00;101517.19;5058306;28;19974;-74
2022/05/05 04:18:11;;;;;;;;;;;;;;;11.32;58.20;101518.16;5056778;28;19936;-73
2022/05/05 04:20:36;;;;;;;;;;;;;;;11.36;58.54;101519.81;5063875;28;20047;-78
2022/05/05 04:23:02;;;;;;;;;;;;;;;11.46;58.03;101528.38;5064783;28;19916;-77
2022/05/05 04:25:27;;;;;;;;;;;;;;;11.45;58.55;101532.69;5067905;28;20023;-77
2022/05/05 04:27:53;;;;;;;;;;;;;;;11.48;58.30;101537.88;5062582;28;20002;-77
2022/05/05 04:30:18;;;;;;;;;;;;;;;11.50;58.57;101532.66;5061022;28;20444;-77
2022/05/05 04:32:44;;;;;;;;;;;;;;;11.37;59.02;101524.16;5066275;28;20408;-78
2022/05/05 04:35:12;;;;;;;;;;;;;;;11.48;58.61;101530.06;5052930;28;19920;-77
2022/05/05 04:37:38;;;;;;;;;;;;;;;11.43;59.23;101531.00;5067014;28;19920;-77
2022/05/05 04:40:04;;;;;;;;;;;;;;;11.41;58.54;101522.38;5061715;28;19924;-77
2022/05/05 04:42:29;;;;;;;;;;;;;;;11.44;59.06;101523.16;5060832;28;19984;-78
2022/05/05 04:44:54;;;;;;;;;;;;;;;11.31;59.28;101520.75;5060212;28;20401;-78
2022/05/05 04:47:20;;;;;;;;;;;;;;;11.27;59.20;101521.63;5065235;28;19924;-78
2022/05/05 04:49:45;;;;;;;;;;;;;;;11.14;59.11;101528.72;5055822;28;19963;-78
2022/05/05 04:52:10;;;;;;;;;;;;;;;11.33;58.31;101535.44;5064112;28;19932;-78
2022/05/05 04:54:35;;;;;;;;;;;;;;;11.14;57.31;101536.53;5059605;28;20435;-74
2022/05/05 04:57:01;;;;;;;;;;;;;;;11.13;58.09;101545.19;5064135;28;19924;-74
2022/05/05 04:59:27;;;;;;;;;;;;;;;11.03;58.63;101553.97;5065200;28;19925;-73
2022/05/05 05:01:52;;;;;;;;;;;;;;;11.03;58.84;101556.56;5067072;28;20409;-74
2022/05/05 05:04:17;;;;;;;;;;;;;;;11.07;58.35;101553.06;5066032;28;19920;-74
2022/05/05 05:06:43;;;;;;;;;;;;;;;11.24;58.48;101556.34;5068748;28;19920;-74
2022/05/05 05:09:08;;;;;;;;;;;;;;;11.20;59.04;101564.19;5067910;28;19981;-74
2022/05/05 05:11:33;;;;;;;;;;;;;;;11.24;58.49;101563.25;5072769;28;20535;-74
2022/05/05 05:13:59;;;;;;;;;;;;;;;11.22;58.79;101570.22;5067129;28;20991;-74
2022/05/05 05:16:25;;;;;;;;;;;;;;;11.29;59.23;101575.41;5068865;28;20412;-74
2022/05/05 05:18:53;;;;;;;;;;;;;;;11.37;59.32;101572.69;5066105;28;20020;-74
2022/05/05 05:21:18;;;;;;;;;;;;;;;11.34;59.33;101576.19;5066715;28;20054;-74
2022/05/05 05:23:44;;;;;;;;;;;;;;;11.27;58.97;101582.31;5065098;28;20020;-74
2022/05/05 05:26:09;;;;;;;;;;;;;;;11.28;58.62;101576.28;5066960;28;19924;-74
2022/05/05 05:28:34;;;;;;;;;;;;;;;11.21;59.17;101571.97;5069402;28;20439;-74
2022/05/05 05:31:00;;;;;;;;;;;;;;;11.33;58.93;101579.66;5069403;28;20018;-74
2022/05/05 05:33:25;;;;;;;;;;;;;;;11.46;58.50;101570.84;5069095;28;20386;-74
2022/05/05 05:35:51;;;;;;;;;;;;;;;11.50;58.51;101575.13;5067531;28;19939;-80
2022/05/05 05:38:20;;;;;;;;;;;;;;;11.45;58.41;101579.53;5068486;28;19950;-80
2022/05/05 05:40:45;;;;;;;;;;;;;;;11.44;59.21;101588.19;5067280;28;19995;-80
2022/05/05 05:43:11;;;;;;;;;;;;;;;11.39;59.57;101591.75;5067416;28;20090;-80
2022/05/05 05:45:36;;;;;;;;;;;;;;;11.46;59.83;101593.41;5063463;28;20017;-80
2022/05/05 05:48:01;;;;;;;;;;;;;;;11.34;59.77;101597.00;5066841;28;20385;-80
2022/05/05 05:50:28;;;;;;;;;;;;;;;11.55;59.48;101599.38;5063543;28;19925;-80
2022/05/05 05:52:54;;;;;;;;;;;;;;;11.59;60.05;101588.94;5066774;28;20351;-80
2022/05/05 05:55:20;;;;;;;;;;;;;;;11.61;60.10;101593.22;5067251;28;19908;-80
2022/05/05 05:57:45;;;;;;;;;;;;;;;11.68;60.04;101600.06;5062967;28;20297;-79
2022/05/05 06:00:10;;;;;;;;;;;;;;;11.71;59.86;101599.19;5061329;28;19924;-79
2022/05/05 06:05:20;;;;;;;;;;;;;;;11.71;59.64;101607.00;5057846;28;19986;-79
2022/05/05 06:07:45;;;;;;;;;;;;;;;11.76;59.71;101607.78;5039922;28;20004;-79
2022/05/05 06:10:11;;;;;;;;;;;;;;;11.76;59.82;101602.59;5046401;28;19963;-79
2022/05/05 06:12:36;;;;;;;;;;;;;;;11.79;59.57;101606.03;5059462;28;19924;-79
2022/05/05 06:15:01;;;;;;;;;;;;;;;11.87;58.85;101617.19;5054156;28;20535;-79
2022/05/05 06:17:27;;;;;;;;;;;;;;;11.75;59.33;101616.47;5044861;28;20071;-79
2022/05/05 06:19:52;;;;;;;;;;;;;;;11.90;58.57;101617.16;5042726;28;19971;-79
2022/05/05 06:22:18;;;;;;;;;;;;;;;11.67;58.30;101618.31;5038625;28;19955;-79
2022/05/05 06:24:43;;;;;;;;;;;;;;;11.91;59.40;101618.88;5043915;28;20349;-79
2022/05/05 06:27:08;;;;;;;;;;;;;;;12.04;60.22;101623.03;5044937;28;20314;-79
2022/05/05 06:29:33;;;;;;;;;;;;;;;12.02;60.21;101629.16;5047570;28;19928;-79
2022/05/05 06:31:59;;;;;;;;;;;;;;;12.02;59.92;101623.94;5053657;28;20390;-79
2022/05/05 06:34:24;;;;;;;;;;;;;;;12.15;59.58;101624.63;5063710;28;19932;-79
2022/05/05 06:36:49;;;;;;;;;;;;;;;12.08;58.79;101627.31;5060926;28;20027;-79
2022/05/05 06:39:15;;;;;;;;;;;;;;;12.02;59.93;101630.00;5059478;28;19959;-79
2022/05/05 06:41:40;;;;;;;;;;;;;;;12.07;59.68;101630.81;5058345;28;20043;-79
2022/05/05 06:44:06;;;;;;;;;;;;;;;12.05;59.90;101631.72;5059133;28;20060;-80
2022/05/05 06:46:32;;;;;;;;;;;;;;;12.10;59.35;101624.69;5061522;28;20285;-75
2022/05/05 06:48:57;;;;;;;;;;;;;;;12.19;59.67;101621.97;5057884;28;19928;-78
2022/05/05 06:51:23;;;;;;;;;;;;;;;12.29;58.41;101627.91;5059308;28;19931;-78
2022/05/05 06:53:48;;;;;;;;;;;;;;;12.25;58.81;101623.59;5058668;28;19931;-74
2022/05/05 06:56:13;;;;;;;;;;;;;;;12.30;58.45;101629.63;5055385;28;20712;-74
2022/05/05 06:58:38;;;;;;;;;;;;;;;12.37;57.49;101623.44;5061133;28;19975;-75
2022/05/05 07:06:48;;;;;;;;;;;;;;;12.50;56.12;101632.81;5063873;28;19927;-75
2022/05/05 07:11:57;;;;;;;;;;;;;;;12.51;56.18;101639.75;5062998;28;20428;-74
2022/05/05 07:14:23;;;;;;;;;;;;;;;12.49;57.64;101644.97;5064346;28;19960;-74
2022/05/05 07:16:48;;;;;;;;;;;;;;;12.50;56.34;101648.44;5065486;28;19928;-75
2022/05/05 07:19:13;;;;;;;;;;;;;;;12.45;57.04;101645.88;5064818;28;20507;-74
2022/05/05 07:21:38;;;;;;;;;;;;;;;12.50;56.93;101646.69;5060663;28;19929;-74
2022/05/05 07:24:04;;;;;;;;;;;;;;;12.59;56.50;101653.56;5061202;28;20011;-75
2022/05/05 07:26:29;;;;;;;;;;;;;;;12.58;56.85;101647.47;5062106;28;19925;-74
2022/05/05 07:28:55;;;;;;;;;;;;;;;12.57;57.98;101642.28;5062929;28;20037;-75
2022/05/05 07:31:22;;;;;;;;;;;;;;;12.58;58.13;101652.69;5064665;28;20220;-80
2022/05/05 07:33:47;;;;;;;;;;;;;;;12.64;57.97;101649.97;5063784;28;20357;-74
2022/05/05 07:36:12;;;;;;;;;;;;;;;12.74;57.38;101655.06;5061775;28;19921;-75
2022/05/05 07:38:38;;;;;;;;;;;;;;;12.74;57.60;101648.09;5061134;28;19924;-78
2022/05/05 07:41:03;;;;;;;;;;;;;;;12.80;58.70;101662.78;5061761;28;20348;-80
2022/05/05 07:43:29;;;;;;;;;;;;;;;12.78;58.37;101657.56;5063184;28;20047;-80
2022/05/05 07:45:54;;;;;;;;;;;;;;;12.80;58.09;101660.19;5064371;28;20297;-80
2022/05/05 07:48:19;;;;;;;;;;;;;;;12.84;58.23;101654.88;5067066;28;20447;-81
2022/05/05 07:50:47;;;;;;;;;;;;;;;12.87;58.70;101656.59;5067001;28;20463;-80
2022/05/05 07:53:12;;;;;;;;;;;;;;;12.95;57.61;101649.50;5067428;28;19977;-74
2022/05/05 07:55:37;;;;;;;;;;;;;;;12.96;58.47;101654.66;5062022;28;19920;-78
2022/05/05 07:58:03;;;;;;;;;;;;;;;13.00;58.72;101651.13;5065230;28;19917;-78
2022/05/05 08:00:28;;;;;;;;;;;;;;;12.99;58.59;101653.75;5068274;28;19927;-78
2022/05/05 08:02:53;;;;;;;;;;;;;;;12.98;58.27;101652.06;5065516;28;20011;-80
2022/05/05 08:05:19;;;;;;;;;;;;;;;13.09;58.54;101653.59;5066172;28;19979;-80
2022/05/05 08:07:45;;;;;;;;;;;;;;;13.17;58.73;101651.69;5058607;28;19917;-81
2022/05/05 08:10:11;;;;;;;;;;;;;;;13.14;58.41;101656.97;5059174;28;19924;-80
2022/05/05 08:12:36;;;;;;;;;;;;;;;13.13;58.33;101664.84;5066461;28;19920;-80
2022/05/05 08:15:02;;;;;;;;;;;;;;;13.13;58.91;101667.44;5064539;28;19948;-80
2022/05/05 08:17:28;;;;;;;;;;;;;;;13.19;58.05;101673.41;5062684;28;20649;-81
2022/05/05 08:19:53;;;;;;;;;;;;;;;13.20;58.54;101671.66;5061187;28;19913;-80
2022/05/05 08:22:19;;;;;;;;;;;;;;;13.22;57.63;101670.72;5057758;28;19928;-80
2022/05/05 08:30:12;;;;;;;;;;;;;;;13.28;58.28;101684.59;5050172;28;20309;-80
2022/05/05 08:32:37;;;;;;;;;;;;;;;13.27;58.20;101688.94;5043062;28;19925;-80
2022/05/05 08:35:03;;;;;;;;;;;;;;;13.30;57.94;101681.06;5043603;28;20293;-80
2022/05/05 08:37:28;;;;;;;;;;;;;;;13.27;57.94;101677.63;5033279;28;19913;-80
2022/05/05 08:39:53;;;;;;;;;;;;;;;13.27;58.13;101683.72;5041852;28;20384;-80
2022/05/05 08:42:19;;;;;;;;;;;;;;;13.29;57.66;101679.31;5045129;28;19929;-80
2022/05/05 08:44:44;;;;;;;;;;;;;;;13.33;57.30;101688.81;5046375;28;19921;-80
2022/05/05 08:47:11;;;;;;;;;;;;;;;13.31;57.27;101685.41;5040395;28;19927;-80
2022/05/05 08:49:39;;;;;;;;;;;;;;;13.30;56.97;101686.28;5040601;28;20004;-80
2022/05/05 08:52:07;;;;;;;;;;;;;;;13.35;57.55;101689.66;5037320;28;20382;-80
2022/05/05 08:54:34;;;;;;;;;;;;;;;13.34;57.89;101690.56;5046506;28;20064;-80
2022/05/05 08:56:59;;;;;;;;;;;;;;;13.34;57.60;101690.56;5045459;28;19929;-80
2022/05/05 08:59:25;;;;;;;;;;;;;;;13.32;57.25;101687.09;5045177;28;19927;-78
2022/05/05 09:01:51;;;;;;;;;;;;;;;13.34;58.37;101690.56;5045682;28;19986;-78
2022/05/05 09:04:16;;;;;;;;;;;;;;;13.29;57.76;101691.50;5046599;28;20445;-79
2022/05/05 09:06:42;;;;;;;;;;;;;;;13.42;57.08;101698.25;5045002;28;19928;-79
2022/05/05 09:09:22;;;;;;;;;;;;;;;13.37;56.52;101695.72;5045169;28;20389;-79
2022/05/05 09:12:03;;;;;;;;;;;;;;;13.33;56.76;101691.44;5053591;28;19924;-79
2022/05/05 09:14:34;;;;;;;;;;;;;;;13.36;56.90;101699.22;5049324;28;19924;-79
2022/05/05 09:17:03;;;;;;;;;;;;;;;13.42;56.62;101693.88;5045987;28;20386;-79
2022/05/05 09:19:28;;;;;;;;;;;;;;;13.42;56.72;101690.41;5046919;28;19967;-79
2022/05/05 09:21:54;;;;;;;;;;;;;;;13.42;55.93;101693.03;5050351;28;20472;-79
2022/05/05 09:24:35;;;;;;;;;;;;;;;13.41;56.02;101691.28;5043356;28;19925;-79
2022/05/05 09:27:27;;;;;;;;;;;;;;;13.43;55.51;101690.41;5044687;28;19920;-79
2022/05/05 09:29:55;;;;;;;;;;;;;;;13.53;54.70;101688.44;5045744;28;19928;-79
2022/05/05 09:32:21;;;;;;;;;;;;;;;13.55;54.24;101694.53;5043042;28;19924;-79
2022/05/05 09:34:46;;;;;;;;;;;;;;;13.54;54.56;101687.56;5043095;28;19935;-78
2022/05/05 09:37:18;;;;;;;;;;;;;;;13.67;54.02;101683.88;5038295;28;20108;-79
2022/05/05 09:39:44;;;;;;;;;;;;;;;13.75;54.23;101685.47;5036518;28;19966;-79
2022/05/05 09:42:10;;;;;;;;;;;;;;;13.75;52.47;101698.53;5044528;28;19921;-79
2022/05/05 09:44:45;;;;;;;;;;;;;;;13.78;51.99;101697.59;5040982;28;19935;-79
2022/05/05 09:47:16;;;;;;;;;;;;;;;13.72;52.15;101692.50;5044068;28;19924;-79
2022/05/05 09:49:56;;;;;;;;;;;;;;;13.84;51.98;101696.59;5044499;28;20015;-79
2022/05/05 09:57:52;;;;;;;;;;;;;;;13.94;51.08;101701.59;5065488;28;19935;-74
2022/05/05 10:05:39;;;;;;;;;;;;;;;13.99;47.29;101693.69;5059808;28;20594;-78
2022/05/05 10:08:05;;;;;;;;;;;;;;;13.97;47.15;101693.72;5060947;28;20370;-74
2022/05/05 10:10:30;;;;;;;;;;;;;;;14.02;48.19;101686.66;5064138;28;19933;-79
2022/05/05 10:12:57;;;;;;;;;;;;;;;14.03;49.02;101690.09;5063124;28;20462;-79
2022/05/05 10:15:23;;;;;;;;;;;;;;;13.99;49.36;101694.56;5062447;28;19925;-79
2022/05/05 10:17:49;;;;;;;;;;;;;;;14.00;49.77;101693.66;5067164;28;19932;-79
2022/05/05 10:20:14;;;;;;;;;;;;;;;14.05;50.98;101694.44;5068241;28;19924;-79
2022/05/05 10:22:45;;;;;;;;;;;;;;;14.10;50.28;101697.81;5066634;28;20071;-79
2022/05/05 10:25:28;;;;;;;;;;;;;;;14.14;49.43;101691.63;5060998;28;19925;-79
2022/05/05 10:27:56;;;;;;;;;;;;;;;14.17;50.17;101695.94;5063110;28;19930;-79
2022/05/05 10:30:34;;;;;;;;;;;;;;;14.18;49.65;101693.28;5061132;28;19928;-78
2022/05/05 10:32:59;;;;;;;;;;;;;;;14.12;50.33;101693.41;5063148;28;19963;-79
2022/05/05 10:35:25;;;;;;;;;;;;;;;14.19;49.83;101687.16;5062670;28;20039;-78
2022/05/05 10:37:51;;;;;;;;;;;;;;;14.26;49.52;101685.28;5062140;28;20519;-79
2022/05/05 10:40:17;;;;;;;;;;;;;;;14.28;49.99;101684.34;5065548;28;19916;-78
2022/05/05 10:42:49;;;;;;;;;;;;;;;14.24;48.83;101685.28;5066855;28;20314;-78
2022/05/05 10:45:15;;;;;;;;;;;;;;;14.28;48.64;101686.09;5060908;28;20008;-74
2022/05/05 10:47:57;;;;;;;;;;;;;;;14.30;49.04;101690.41;5059686;28;20008;-78
2022/05/05 10:50:52;;;;;;;;;;;;;;;14.29;48.69;101683.44;5061133;28;19932;-78
2022/05/05 10:53:25;;;;;;;;;;;;;;;14.36;49.90;101681.56;5054440;28;19928;-78
2022/05/05 10:55:51;;;;;;;;;;;;;;;14.35;50.29;101681.59;5065799;28;19920;-78
2022/05/05 10:58:34;;;;;;;;;;;;;;;14.42;48.60;101684.03;5066451;28;19923;-81
2022/05/05 11:01:00;;;;;;;;;;;;;;;14.49;48.25;101683.00;5068460;28;19923;-81
2022/05/05 11:03:26;;;;;;;;;;;;;;;14.53;48.65;101670.75;5061047;28;19924;-81
2022/05/05 11:06:11;;;;;;;;;;;;;;;14.52;49.59;101682.09;5064441;28;20421;-82
2022/05/05 11:08:36;;;;;;;;;;;;;;;14.55;49.02;101682.00;5066173;28;19945;-82
2022/05/05 11:14:00;;;;;;;;;;;;;;;14.54;49.66;101681.16;5058486;28;19970;-78
2022/05/05 11:22:07;;;;;;;;;;;;;;;14.57;47.88;101681.06;5047593;28;19925;-78
2022/05/05 11:24:33;;;;;;;;;;;;;;;14.52;47.51;101682.09;5063675;28;19974;-78
2022/05/05 11:26:59;;;;;;;;;;;;;;;14.62;47.25;101683.59;5063224;28;19929;-78
2022/05/05 11:29:27;;;;;;;;;;;;;;;14.64;47.84;101671.34;5059860;28;19925;-74
2022/05/05 11:32:00;;;;;;;;;;;;;;;14.60;47.88;101667.94;5064357;28;19920;-74
2022/05/05 11:34:36;;;;;;;;;;;;;;;14.69;47.38;101679.94;5062526;28;19920;-74
2022/05/05 11:37:02;;;;;;;;;;;;;;;14.71;46.75;101676.38;5060460;28;19921;-74
2022/05/05 11:39:28;;;;;;;;;;;;;;;14.74;47.83;101676.34;5059021;28;19927;-74
2022/05/05 11:42:00;;;;;;;;;;;;;;;14.84;47.28;101679.59;5060565;28;19921;-74
2022/05/05 11:44:27;;;;;;;;;;;;;;;14.83;46.56;101673.50;5060575;28;20304;-74
2022/05/05 11:46:53;;;;;;;;;;;;;;;14.84;47.17;101674.38;5059722;28;20420;-75
2022/05/05 11:49:19;;;;;;;;;;;;;;;14.91;47.17;101678.56;5061230;28;19928;-80
2022/05/05 11:51:44;;;;;;;;;;;;;;;14.82;47.64;101679.66;5061474;28;19929;-78
2022/05/05 11:54:10;;;;;;;;;;;;;;;14.91;47.80;101675.09;5062058;28;19925;-78
2022/05/05 11:56:37;;;;;;;;;;;;;;;14.93;48.92;101675.91;5055587;28;19929;-78
2022/05/05 12:02:10;;;;;;;;;;;;;;;14.94;47.55;101673.25;5060219;28;19974;-78
2022/05/05 12:04:37;;;;;;;;;;;;;;;14.90;47.20;101668.13;5063281;28;19925;-78
2022/05/05 12:07:03;;;;;;;;;;;;;;;14.92;46.86;101675.03;5060212;28;19927;-81
2022/05/05 12:09:28;;;;;;;;;;;;;;;14.95;46.90;101672.34;5063076;28;19951;-81
2022/05/05 12:11:54;;;;;;;;;;;;;;;14.98;47.62;101672.28;5063107;28;19925;-81
2022/05/05 12:14:22;;;;;;;;;;;;;;;15.17;45.87;101659.59;5063218;28;20385;-81
2022/05/05 12:16:48;;;;;;;;;;;;;;;15.07;47.23;101665.94;5060638;28;20389;-79
2022/05/05 12:19:15;;;;;;;;;;;;;;;15.19;45.05;101671.72;5065387;28;19923;-79
2022/05/05 12:21:51;;;;;;;;;;;;;;;15.22;44.57;101670.78;5065010;28;19931;-78
2022/05/05 12:24:18;;;;;;;;;;;;;;;15.32;45.40;101667.91;5064402;28;19939;-78
2022/05/05 12:26:43;;;;;;;;;;;;;;;15.29;45.13;101673.22;5061926;28;19924;-78
2022/05/05 12:29:13;;;;;;;;;;;;;;;15.24;46.09;101664.66;5063926;28;19925;-78
2022/05/05 12:31:39;;;;;;;;;;;;;;;15.28;45.70;101668.00;5060481;28;19932;-78
2022/05/05 12:34:04;;;;;;;;;;;;;;;15.35;45.13;101662.59;5060509;28;19931;-81
2022/05/05 12:36:30;;;;;;;;;;;;;;;15.49;44.45;101663.97;5066268;28;20428;-81
2022/05/05 12:39:11;;;;;;;;;;;;;;;15.47;43.98;101661.41;5061072;28;19920;-81
2022/05/05 12:41:36;;;;;;;;;;;;;;;15.45;45.62;101660.59;5062376;28;20197;-78
2022/05/05 12:44:08;;;;;;;;;;;;;;;15.45;44.39;101663.22;5067475;28;19920;-78
2022/05/05 12:46:33;;;;;;;;;;;;;;;15.47;45.67;101665.78;5068297;28;20534;-81
2022/05/05 12:48:59;;;;;;;;;;;;;;;15.56;44.87;101655.91;5065507;28;19928;-81
2022/05/05 12:51:28;;;;;;;;;;;;;;;15.67;43.29;101656.47;5064498;28;19932;-81
2022/05/05 13:02:15;;;;;;;;;;;;;;;15.78;44.04;101664.91;5066889;28;19959;-79
2022/05/05 13:04:40;;;;;;;;;;;;;;;15.70;44.65;101661.63;5071005;28;19921;-79
2022/05/05 13:07:06;;;;;;;;;;;;;;;15.81;43.94;101664.84;5073082;28;19924;-78
2022/05/05 13:09:31;;;;;;;;;;;;;;;15.62;45.00;101663.59;5064442;28;19964;-78
2022/05/05 13:11:56;;;;;;;;;;;;;;;15.58;44.42;101659.34;5072008;28;19951;-78
2022/05/05 13:14:22;;;;;;;;;;;;;;;15.61;43.91;101654.03;5068457;28;19924;-78
2022/05/05 13:16:47;;;;;;;;;;;;;;;15.66;42.76;101659.16;5067380;28;19921;-78
2022/05/05 13:19:13;;;;;;;;;;;;;;;15.73;43.28;101650.19;5067979;28;19913;-74
2022/05/05 13:21:39;;;;;;;;;;;;;;;15.69;42.73;101657.28;5061283;28;19928;-79
2022/05/05 13:24:05;;;;;;;;;;;;;;;15.62;43.30;101649.66;5064743;28;20027;-78
2022/05/05 13:26:31;;;;;;;;;;;;;;;15.62;42.72;101650.50;5066033;28;20054;-74
2022/05/05 13:28:56;;;;;;;;;;;;;;;15.78;43.97;101654.44;5067076;28;19935;-74
2022/05/05 13:31:22;;;;;;;;;;;;;;;15.75;42.63;101651.91;5070581;28;20324;-81
2022/05/05 13:33:47;;;;;;;;;;;;;;;15.88;42.74;101650.66;5066664;28;20393;-81